Terminal Aerodrome Forecast
Issued by NWS

Home | Current Version | Previous Version | Graphics & Text | Print | Product List | Glossary On
Versions: 1 2 3 4 5 6 7 8 9 10 11 12 13
109
FTUS43 KMPX 230520
TAFRWF
TAF
KRWF 230520Z 2306/2406 29008KT P6SM FEW200
     FM231500 30015G23KT P6SM SCT025 OVC050
     FM240100 30008KT P6SM SCT050=

USA.gov is the U.S. government's official web portal to all federal, state and local government web resources and services.